Time,TemperatureF,DewpointF,PressureIn,WindDirection,WindDirectionDegrees,WindSpeedMPH,WindSpeedGustMPH,Humidity,HourlyPrecipIn,Conditions,Clouds,dailyrainin,SoftwareType,DateUTC
2013-01-07 00:00:00,68.2,67.9,30.12,WNW,292,0.0,0.0,99,0.00,CLR,,0.00,WeatherDisplay:10.37,2013-01-07 05:00:00,
2013-01-07 00:05:00,68.2,67.9,30.12,WNW,292,0.0,0.0,99,0.00,CLR,,0.00,WeatherDisplay:10.37,2013-01-07 05:05:00,
2013-01-07 00:10:00,68.4,68.1,30.12,WNW,292,0.0,0.0,99,0.00,CLR,,0.00,WeatherDisplay:10.37,2013-01-07 05:10:00,
2013-01-07 00:15:00,68.4,68.1,30.11,WNW,292,0.0,0.0,99,0.00,CLR,,0.00,WeatherDisplay:10.37,2013-01-07 05:15:00,
2013-01-07 00:20:00,68.5,68.2,30.11,West,270,0.0,0.0,99,0.00,CLR,,0.00,WeatherDisplay:10.37,2013-01-07 05:20:00,
2013-01-07 00:25:00,68.5,68.2,30.11,West,274,0.0,0.0,99,0.00,CLR,,0.00,WeatherDisplay:10.37,2013-01-07 05:25:00,
2013-01-07 00:30:00,68.5,68.2,30.11,West,274,0.0,0.0,99,0.00,CLR,,0.00,WeatherDisplay:10.37,2013-01-07 05:30:00,
2013-01-07 00:35:00,68.5,68.2,30.11,West,270,0.0,0.0,99,0.00,CLR,,0.00,WeatherDisplay:10.37,2013-01-07 05:35:00,
2013-01-07 00:40:00,68.5,68.2,30.11,West,277,0.0,0.0,99,0.00,CLR,,0.00,WeatherDisplay:10.37,2013-01-07 05:40:00,
2013-01-07 00:45:00,68.5,68.2,30.11,WNW,288,2.0,0.0,99,0.00,CLR,,0.00,WeatherDisplay:10.37,2013-01-07 05:45:00,
2013-01-07 00:50:00,68.5,68.2,30.11,WNW,303,2.0,0.0,99,0.00,CLR,,0.00,WeatherDisplay:10.37,2013-01-07 05:50:00,
2013-01-07 00:55:00,68.5,68.2,30.11,WNW,298,2.0,0.0,99,0.00,CLR,,0.00,WeatherDisplay:10.37,2013-01-07 05:55:00,
2013-01-07 01:00:00,68.5,68.2,30.11,WNW,289,2.0,0.0,99,0.00,CLR,,0.00,WeatherDisplay:10.37,2013-01-07 06:00:00,
2013-01-07 01:05:00,68.5,68.2,30.11,WNW,291,2.0,0.0,99,0.00,CLR,,0.00,WeatherDisplay:10.37,2013-01-07 06:05:00,
2013-01-07 01:10:00,68.4,68.1,30.11,NW,305,2.0,0.0,99,0.00,CLR,,0.00,WeatherDisplay:10.37,2013-01-07 06:10:00,
2013-01-07 01:15:00,68.4,68.1,30.10,NNW,327,2.0,0.0,99,0.00,CLR,,0.00,WeatherDisplay:10.37,2013-01-07 06:15:00,
2013-01-07 01:20:00,68.4,68.1,30.10,NNW,330,2.0,0.0,99,0.00,CLR,,0.00,WeatherDisplay:10.37,2013-01-07 06:20:00,
2013-01-07 01:25:00,68.4,68.1,30.10,NNW,329,2.0,0.0,99,0.00,CLR,,0.00,WeatherDisplay:10.37,2013-01-07 06:25:00,
2013-01-07 01:30:00,68.4,68.1,30.10,NNW,330,0.0,0.0,99,0.00,CLR,,0.00,WeatherDisplay:10.37,2013-01-07 06:30:00,
2013-01-07 01:35:00,68.2,67.9,30.10,NNW,338,0.0,0.0,99,0.00,CLR,,0.00,WeatherDisplay:10.37,2013-01-07 06:35:00,
2013-01-07 01:40:00,68.0,67.7,30.10,NW,310,0.0,0.0,99,0.00,CLR,,0.00,WeatherDisplay:10.37,2013-01-07 06:40:00,
2013-01-07 01:45:00,68.0,67.7,30.10,West,273,0.0,0.0,99,0.00,CLR,,0.00,WeatherDisplay:10.37,2013-01-07 06:45:00,
2013-01-07 01:50:00,67.8,67.5,30.10,West,273,0.0,0.0,99,0.00,CLR,,0.00,WeatherDisplay:10.37,2013-01-07 06:50:00,
2013-01-07 01:55:00,67.8,67.5,30.09,West,275,0.0,0.0,99,0.00,CLR,,0.00,WeatherDisplay:10.37,2013-01-07 06:55:00,
2013-01-07 02:00:00,67.6,67.3,30.09,WNW,292,0.0,0.0,99,0.00,CLR,,0.00,WeatherDisplay:10.37,2013-01-07 07:00:00,
2013-01-07 02:05:00,67.6,67.3,30.10,WNW,303,0.0,0.0,99,0.00,CLR,,0.00,WeatherDisplay:10.37,2013-01-07 07:05:00,
2013-01-07 02:10:00,67.6,67.3,30.10,NW,316,2.0,0.0,99,0.00,CLR,,0.00,WeatherDisplay:10.37,2013-01-07 07:10:00,
2013-01-07 02:15:00,67.6,67.3,30.10,NW,310,3.0,0.0,99,0.00,CLR,,0.00,WeatherDisplay:10.37,2013-01-07 07:15:00,
2013-01-07 02:20:00,67.8,67.5,30.09,NW,326,3.0,0.0,99,0.00,CLR,,0.00,WeatherDisplay:10.37,2013-01-07 07:20:00,
2013-01-07 02:25:00,67.8,67.5,30.09,NNW,339,0.0,0.0,99,0.00,CLR,,0.00,WeatherDisplay:10.37,2013-01-07 07:25:00,
2013-01-07 02:30:00,67.8,67.5,30.08,NNW,342,0.0,0.0,99,0.00,CLR,,0.00,WeatherDisplay:10.37,2013-01-07 07:30:00,
2013-01-07 02:35:00,67.8,67.5,30.08,NNW,332,2.0,0.0,99,0.00,CLR,,0.00,WeatherDisplay:10.37,2013-01-07 07:35:00,
2013-01-07 02:40:00,67.8,67.5,30.09,NNW,327,3.0,0.0,99,0.00,CLR,,0.00,WeatherDisplay:10.37,2013-01-07 07:40:00,
2013-01-07 02:45:00,67.8,67.5,30.09,NW,326,3.0,0.0,99,0.00,CLR,,0.00,WeatherDisplay:10.37,2013-01-07 07:45:00,
2013-01-07 02:50:00,67.8,67.5,30.09,NNW,327,5.0,0.0,99,0.00,CLR,,0.00,WeatherDisplay:10.37,2013-01-07 07:50:00,
2013-01-07 02:55:00,67.8,67.5,30.08,NW,311,3.0,0.0,99,0.00,CLR,,0.00,WeatherDisplay:10.37,2013-01-07 07:55:00,
2013-01-07 03:00:00,67.8,67.5,30.08,NW,315,4.6,4.6,99,0.00,CLR,,0.00,WeatherDisplay:10.37,2013-01-07 08:00:00,
2013-01-07 03:05:00,67.8,67.5,30.09,NW,315,5.8,5.8,99,0.00,CLR,,0.00,WeatherDisplay:10.37,2013-01-07 08:05:00,
2013-01-07 03:10:00,67.8,67.5,30.09,NW,315,4.6,4.6,99,0.00,CLR,,0.00,WeatherDisplay:10.37,2013-01-07 08:10:00,
2013-01-07 03:15:00,67.8,67.5,30.09,NW,315,3.7,3.7,99,0.00,CLR,,0.00,WeatherDisplay:10.37,2013-01-07 08:15:00,
2013-01-07 03:20:00,67.6,67.3,30.09,NNW,338,4.6,4.6,99,0.00,CLR,,0.00,WeatherDisplay:10.37,2013-01-07 08:20:00,
2013-01-07 03:25:00,67.6,67.3,30.09,NNW,338,3.5,3.5,99,0.00,CLR,,0.00,WeatherDisplay:10.37,2013-01-07 08:25:00,
2013-01-07 03:30:00,67.5,67.2,30.09,NW,315,3.5,3.5,99,0.00,CLR,,0.00,WeatherDisplay:10.37,2013-01-07 08:30:00,
2013-01-07 03:35:00,67.5,67.2,30.09,WNW,292,2.7,2.7,99,0.00,CLR,,0.00,WeatherDisplay:10.37,2013-01-07 08:35:00,
2013-01-07 03:40:00,67.5,67.2,30.09,NW,315,3.7,3.7,99,0.00,CLR,,0.00,WeatherDisplay:10.37,2013-01-07 08:40:00,
2013-01-07 03:45:00,67.3,67.0,30.09,NW,315,2.2,2.2,99,0.00,CLR,,0.00,WeatherDisplay:10.37,2013-01-07 08:45:00,
2013-01-07 03:50:00,67.1,66.8,30.08,NW,315,0.0,0.0,99,0.00,CLR,,0.00,WeatherDisplay:10.37,2013-01-07 08:50:00,
2013-01-07 03:55:00,67.1,66.8,30.08,NW,315,0.0,0.0,99,0.00,CLR,,0.00,WeatherDisplay:10.37,2013-01-07 08:55:00,
2013-01-07 04:00:00,67.1,66.8,30.08,NW,315,0.0,0.0,99,0.00,CLR,,0.00,WeatherDisplay:10.37,2013-01-07 09:00:00,
2013-01-07 04:05:00,67.1,66.8,30.07,NW,315,0.0,0.0,99,0.00,CLR,,0.00,WeatherDisplay:10.37,2013-01-07 09:05:00,
2013-01-07 04:10:00,67.1,66.8,30.07,NNW,338,4.6,4.6,99,0.00,CLR,,0.00,WeatherDisplay:10.37,2013-01-07 09:10:00,
2013-01-07 04:15:00,67.1,66.8,30.07,NNW,338,4.7,4.7,99,0.00,CLR,,0.00,WeatherDisplay:10.37,2013-01-07 09:15:00,
2013-01-07 04:20:00,67.1,66.8,30.07,NNW,338,5.8,5.8,99,0.00,CLR,,0.00,WeatherDisplay:10.37,2013-01-07 09:20:00,
2013-01-07 04:25:00,67.1,66.8,30.07,NNW,338,3.7,3.7,99,0.00,CLR,,0.00,WeatherDisplay:10.37,2013-01-07 09:25:00,
2013-01-07 04:30:00,66.9,66.6,30.07,North,360,4.6,4.6,99,0.00,CLR,,0.00,WeatherDisplay:10.37,2013-01-07 09:30:00,
2013-01-07 04:35:00,67.1,66.8,30.07,North,360,4.6,4.6,99,0.00,CLR,,0.00,WeatherDisplay:10.37,2013-01-07 09:35:00,
2013-01-07 04:40:00,67.1,66.8,30.08,NW,315,4.2,4.2,99,0.00,CLR,,0.00,WeatherDisplay:10.37,2013-01-07 09:40:00,
2013-01-07 04:45:00,67.1,66.8,30.08,NNW,338,3.7,3.7,99,0.00,CLR,,0.00,WeatherDisplay:10.37,2013-01-07 09:45:00,
2013-01-07 04:50:00,66.9,66.6,30.07,NNW,338,3.5,3.5,99,0.00,CLR,,0.00,WeatherDisplay:10.37,2013-01-07 09:50:00,
2013-01-07 04:55:00,66.9,66.6,30.07,NNW,338,2.7,2.7,99,0.00,CLR,,0.00,WeatherDisplay:10.37,2013-01-07 09:55:00,
2013-01-07 05:00:00,66.9,66.6,30.07,NNW,338,2.3,2.3,99,0.00,CLR,,0.00,WeatherDisplay:10.37,2013-01-07 10:00:00,
2013-01-07 05:05:00,66.7,66.4,30.08,NNW,338,2.7,2.7,99,0.00,CLR,,0.00,WeatherDisplay:10.37,2013-01-07 10:05:00,
2013-01-07 05:10:00,66.7,66.4,30.08,NNW,338,2.7,2.7,99,0.00,CLR,,0.00,WeatherDisplay:10.37,2013-01-07 10:10:00,
2013-01-07 05:15:00,66.7,66.4,30.08,NNW,338,2.3,2.3,99,0.00,CLR,,0.00,WeatherDisplay:10.37,2013-01-07 10:15:00,
2013-01-07 05:20:00,66.6,66.3,30.08,North,360,2.3,2.3,99,0.00,CLR,,0.00,WeatherDisplay:10.37,2013-01-07 10:20:00,
2013-01-07 05:26:00,66.6,66.3,30.08,NNW,338,1.1,0.0,99,0.00,CLR,,0.00,WeatherDisplay:10.37,2013-01-07 10:26:00,
2013-01-07 05:31:00,66.6,66.3,30.08,NW,315,2.7,2.7,99,0.00,CLR,,0.00,WeatherDisplay:10.37,2013-01-07 10:31:00,
2013-01-07 05:36:00,66.7,66.4,30.08,NW,315,3.7,3.7,99,0.00,CLR,,0.00,WeatherDisplay:10.37,2013-01-07 10:36:00,
2013-01-07 05:41:00,66.7,66.4,30.09,NW,315,3.5,3.5,99,0.00,CLR,,0.00,WeatherDisplay:10.37,2013-01-07 10:41:00,
2013-01-07 05:46:00,66.7,66.4,30.09,NW,315,2.7,2.7,99,0.00,CLR,,0.00,WeatherDisplay:10.37,2013-01-07 10:46:00,
2013-01-07 05:51:00,66.7,66.4,30.09,NNW,338,2.3,2.3,99,0.00,CLR,,0.00,WeatherDisplay:10.37,2013-01-07 10:51:00,
2013-01-07 05:56:00,66.7,66.4,30.09,NW,315,2.3,2.3,99,0.00,CLR,,0.00,WeatherDisplay:10.37,2013-01-07 10:56:00,
2013-01-07 06:01:00,66.7,66.4,30.09,NW,315,2.3,2.3,99,0.00,CLR,,0.00,WeatherDisplay:10.37,2013-01-07 11:01:00,
2013-01-07 06:06:00,66.7,66.4,30.09,NW,315,2.7,2.7,99,0.00,CLR,,0.00,WeatherDisplay:10.37,2013-01-07 11:06:00,
2013-01-07 06:11:00,66.7,66.4,30.09,ENE,68,1.1,0.0,99,0.00,CLR,,0.00,WeatherDisplay:10.37,2013-01-07 11:11:00,
2013-01-07 06:16:00,66.7,66.4,30.09,North,360,0.0,0.3,99,0.00,CLR,,0.00,WeatherDisplay:10.37,2013-01-07 11:16:00,
2013-01-07 06:21:00,66.7,66.4,30.09,NNW,338,0.0,0.0,99,0.00,CLR,,0.00,WeatherDisplay:10.37,2013-01-07 11:21:00,
2013-01-07 06:26:00,66.7,66.4,30.09,NW,315,0.0,0.0,99,0.00,CLR,,0.00,WeatherDisplay:10.37,2013-01-07 11:26:00,
2013-01-07 06:31:00,66.7,66.4,30.09,NW,315,4.6,4.6,99,0.00,CLR,,0.00,WeatherDisplay:10.37,2013-01-07 11:31:00,
2013-01-07 06:36:00,66.7,66.4,30.09,NNW,338,2.3,2.4,99,0.00,CLR,,0.00,WeatherDisplay:10.37,2013-01-07 11:36:00,
2013-01-07 06:41:00,66.7,66.4,30.10,North,360,2.7,2.7,99,0.00,CLR,,0.00,WeatherDisplay:10.37,2013-01-07 11:41:00,
2013-01-07 06:46:00,66.7,66.4,30.10,NW,315,1.1,0.0,99,0.00,CLR,,0.00,WeatherDisplay:10.37,2013-01-07 11:46:00,
2013-01-07 06:51:00,66.7,66.4,30.09,NW,315,0.0,0.0,99,0.00,CLR,,0.00,WeatherDisplay:10.37,2013-01-07 11:51:00,
2013-01-07 06:56:00,66.7,66.4,30.09,NW,315,0.0,0.0,99,0.00,CLR,,0.00,WeatherDisplay:10.37,2013-01-07 11:56:00,
2013-01-07 07:01:00,66.6,66.3,30.09,NW,315,0.0,0.0,99,0.00,CLR,,0.00,WeatherDisplay:10.37,2013-01-07 12:01:00,
2013-01-07 07:06:00,66.6,66.3,30.10,NW,315,0.0,0.0,99,0.00,CLR,,0.00,WeatherDisplay:10.37,2013-01-07 12:06:00,
2013-01-07 07:11:00,66.4,66.1,30.10,NW,315,0.0,0.0,99,0.00,CLR,,0.00,WeatherDisplay:10.37,2013-01-07 12:11:00,
2013-01-07 07:16:00,66.4,66.1,30.11,NW,315,0.0,0.0,99,0.00,CLR,,0.00,WeatherDisplay:10.37,2013-01-07 12:16:00,
2013-01-07 07:21:00,66.6,66.3,30.11,NW,315,3.5,3.5,99,0.00,CLR,,0.00,WeatherDisplay:10.37,2013-01-07 12:21:00,
2013-01-07 07:26:00,66.7,66.4,30.12,NNW,338,3.5,3.5,99,0.00,CLR,,0.00,WeatherDisplay:10.37,2013-01-07 12:26:00,
2013-01-07 07:31:00,66.9,66.6,30.12,ENE,68,2.7,2.7,99,0.00,CLR,,0.00,WeatherDisplay:10.37,2013-01-07 12:31:00,
2013-01-07 07:36:00,67.1,66.8,30.12,North,360,2.7,2.7,99,0.00,CLR,,0.00,WeatherDisplay:10.37,2013-01-07 12:36:00,
2013-01-07 07:41:00,67.3,67.0,30.12,NNW,338,2.7,2.7,99,0.00,CLR,,0.00,WeatherDisplay:10.37,2013-01-07 12:41:00,
2013-01-07 07:46:00,67.5,67.2,30.12,NNW,338,3.7,3.7,99,0.00,CLR,,0.00,WeatherDisplay:10.37,2013-01-07 12:46:00,
2013-01-07 07:51:00,67.6,67.3,30.12,North,360,5.8,5.8,99,0.00,CLR,,0.00,WeatherDisplay:10.37,2013-01-07 12:51:00,
2013-01-07 07:56:00,68.0,67.7,30.12,NNW,338,4.6,4.6,99,0.00,CLR,,0.00,WeatherDisplay:10.37,2013-01-07 12:56:00,
2013-01-07 08:01:00,68.4,68.1,30.12,NNW,338,7.3,7.3,99,0.00,CLR,,0.00,WeatherDisplay:10.37,2013-01-07 13:01:00,
2013-01-07 08:06:00,68.5,68.2,30.13,NW,315,6.9,6.9,99,0.00,CLR,,0.00,WeatherDisplay:10.37,2013-01-07 13:06:00,
2013-01-07 08:11:00,68.9,68.3,30.13,NW,315,5.8,5.8,98,0.00,CLR,,0.00,WeatherDisplay:10.37,2013-01-07 13:11:00,
2013-01-07 08:16:00,68.9,68.3,30.13,WNW,292,5.8,5.8,98,0.00,CLR,,0.00,WeatherDisplay:10.37,2013-01-07 13:16:00,
2013-01-07 08:21:00,69.1,68.2,30.13,NNW,338,4.7,4.7,97,0.00,CLR,,0.00,WeatherDisplay:10.37,2013-01-07 13:21:00,
2013-01-07 08:26:00,69.3,68.1,30.14,North,360,5.8,5.8,96,0.00,CLR,,0.00,WeatherDisplay:10.37,2013-01-07 13:26:00,
2013-01-07 08:31:00,69.4,67.9,30.14,NNW,338,4.6,4.6,95,0.00,CLR,,0.00,WeatherDisplay:10.37,2013-01-07 13:31:00,
2013-01-07 08:36:00,69.4,67.9,30.14,NNW,338,5.8,5.8,95,0.00,CLR,,0.00,WeatherDisplay:10.37,2013-01-07 13:36:00,
2013-01-07 08:41:00,69.4,67.9,30.14,ENE,68,4.6,4.6,95,0.00,CLR,,0.00,WeatherDisplay:10.37,2013-01-07 13:41:00,
2013-01-07 08:46:00,69.6,68.1,30.14,NNE,22,4.2,4.2,95,0.00,CLR,,0.00,WeatherDisplay:10.37,2013-01-07 13:46:00,
2013-01-07 08:51:00,69.6,68.1,30.15,NNW,338,3.7,3.7,95,0.00,CLR,,0.00,WeatherDisplay:10.37,2013-01-07 13:51:00,
2013-01-07 08:56:00,69.8,68.6,30.15,West,270,3.5,3.5,96,0.00,CLR,,0.00,WeatherDisplay:10.37,2013-01-07 13:56:00,
2013-01-07 09:01:00,70.0,68.8,30.15,NNW,338,3.5,3.5,96,0.00,CLR,,0.00,WeatherDisplay:10.37,2013-01-07 14:01:00,
2013-01-07 09:06:00,70.0,68.8,30.14,WNW,292,2.7,2.7,96,0.00,CLR,,0.00,WeatherDisplay:10.37,2013-01-07 14:06:00,
2013-01-07 09:11:00,70.2,69.0,30.14,NW,315,4.6,4.6,96,0.00,CLR,,0.00,WeatherDisplay:10.37,2013-01-07 14:11:00,
2013-01-07 09:16:00,70.3,69.1,30.15,North,360,4.6,4.6,96,0.00,CLR,,0.00,WeatherDisplay:10.37,2013-01-07 14:16:00,
2013-01-07 09:21:00,70.5,69.3,30.15,North,360,4.7,4.7,96,0.00,CLR,,0.00,WeatherDisplay:10.37,2013-01-07 14:21:00,
2013-01-07 09:26:00,70.7,69.8,30.16,North,360,5.8,5.8,97,0.00,CLR,,0.00,WeatherDisplay:10.37,2013-01-07 14:26:00,
2013-01-07 09:31:00,70.7,69.8,30.16,NNW,338,6.9,6.9,97,0.00,CLR,,0.00,WeatherDisplay:10.37,2013-01-07 14:31:00,
2013-01-07 09:36:00,70.7,69.8,30.16,NNW,338,5.8,5.8,97,0.00,CLR,,0.00,WeatherDisplay:10.37,2013-01-07 14:36:00,
2013-01-07 09:41:00,70.7,69.8,30.16,NNE,22,4.7,4.7,97,0.00,CLR,,0.00,WeatherDisplay:10.37,2013-01-07 14:41:00,
2013-01-07 09:46:00,70.7,69.8,30.16,NNW,338,3.7,3.7,97,0.00,CLR,,0.00,WeatherDisplay:10.37,2013-01-07 14:46:00,
2013-01-07 09:51:00,70.7,69.8,30.16,NNW,338,3.5,3.5,97,0.01,RA,,0.01,WeatherDisplay:10.37,2013-01-07 14:51:00,
2013-01-07 09:56:00,70.5,70.2,30.16,East,90,3.5,3.5,99,0.06,RA,,0.06,WeatherDisplay:10.37,2013-01-07 14:56:00,
2013-01-07 10:01:00,70.5,70.2,30.16,North,360,3.5,3.5,99,0.11,RA,,0.12,WeatherDisplay:10.37,2013-01-07 15:01:00,
2013-01-07 10:06:00,70.3,70.0,30.16,North,360,2.3,2.3,99,0.12,RA,,0.12,WeatherDisplay:10.37,2013-01-07 15:06:00,
2013-01-07 10:11:00,70.3,70.0,30.16,ENE,68,2.7,2.7,99,0.13,RA,,0.13,WeatherDisplay:10.37,2013-01-07 15:11:00,
2013-01-07 10:16:00,70.2,69.9,30.17,ENE,68,5.8,5.8,99,0.13,RA,,0.13,WeatherDisplay:10.37,2013-01-07 15:16:00,
2013-01-07 10:21:00,70.0,69.7,30.17,SE,135,5.8,5.8,99,0.13,CLR,,0.13,WeatherDisplay:10.37,2013-01-07 15:21:00,
2013-01-07 10:27:00,70.2,69.9,30.16,NE,45,5.8,5.8,99,0.14,RA,,0.14,WeatherDisplay:10.37,2013-01-07 15:27:00,
2013-01-07 10:32:00,70.2,69.9,30.16,NNW,338,2.3,2.3,99,0.15,RA,,0.15,WeatherDisplay:10.37,2013-01-07 15:32:00,
2013-01-07 10:37:00,70.2,69.9,30.16,NE,45,3.5,3.5,99,0.15,RA,,0.15,WeatherDisplay:10.37,2013-01-07 15:37:00,
2013-01-07 10:42:00,70.2,69.9,30.16,North,360,2.3,2.3,99,0.15,CLR,,0.15,WeatherDisplay:10.37,2013-01-07 15:42:00,
2013-01-07 10:47:00,70.2,69.9,30.16,NW,315,3.5,3.5,99,0.15,CLR,,0.15,WeatherDisplay:10.37,2013-01-07 15:47:00,
2013-01-07 10:52:00,70.0,69.7,30.16,ESE,112,4.6,4.6,99,0.15,RA,,0.16,WeatherDisplay:10.37,2013-01-07 15:52:00,
2013-01-07 10:57:00,69.6,69.3,30.16,SSE,158,4.2,4.2,99,0.10,RA,,0.16,WeatherDisplay:10.37,2013-01-07 15:57:00,
2013-01-07 11:02:00,69.6,69.3,30.15,SSE,158,3.5,3.5,99,0.06,RA,,0.17,WeatherDisplay:10.37,2013-01-07 16:02:00,
2013-01-07 11:07:00,69.6,69.3,30.15,NNW,338,6.3,6.3,99,0.06,RA,,0.18,WeatherDisplay:10.37,2013-01-07 16:07:00,
2013-01-07 11:12:00,69.6,69.3,30.15,NNW,338,4.6,4.6,99,0.06,RA,,0.19,WeatherDisplay:10.37,2013-01-07 16:12:00,
2013-01-07 11:17:00,69.8,69.5,30.15,SSE,158,4.6,4.6,99,0.06,RA,,0.19,WeatherDisplay:10.37,2013-01-07 16:17:00,
2013-01-07 11:22:00,70.2,69.9,30.15,ESE,112,4.2,4.2,99,0.06,CLR,,0.19,WeatherDisplay:10.37,2013-01-07 16:22:00,
2013-01-07 11:27:00,70.5,70.2,30.15,ESE,112,3.5,3.5,99,0.05,CLR,,0.19,WeatherDisplay:10.37,2013-01-07 16:27:00,
2013-01-07 11:32:00,70.5,70.2,30.15,ENE,68,5.8,5.8,99,0.04,CLR,,0.19,WeatherDisplay:10.37,2013-01-07 16:32:00,
2013-01-07 11:37:00,70.3,70.0,30.15,SSE,158,4.6,4.6,99,0.04,CLR,,0.19,WeatherDisplay:10.37,2013-01-07 16:37:00,
2013-01-07 11:42:00,70.2,69.9,30.15,ESE,112,2.3,2.3,99,0.04,CLR,,0.19,WeatherDisplay:10.37,2013-01-07 16:42:00,
2013-01-07 11:47:00,70.7,70.4,30.15,SE,135,0.0,0.0,99,0.04,CLR,,0.19,WeatherDisplay:10.37,2013-01-07 16:47:00,
2013-01-07 11:52:00,71.4,70.8,30.14,SSW,202,0.0,0.0,98,0.03,CLR,,0.19,WeatherDisplay:10.37,2013-01-07 16:52:00,
2013-01-07 11:57:00,72.1,71.2,30.14,South,180,0.0,0.0,97,0.03,CLR,,0.19,WeatherDisplay:10.37,2013-01-07 16:57:00,
2013-01-07 12:02:00,72.7,71.2,30.12,West,270,3.5,3.5,95,0.02,CLR,,0.19,WeatherDisplay:10.37,2013-01-07 17:02:00,
2013-01-07 12:07:00,73.8,72.3,30.12,West,270,2.3,2.3,95,0.01,CLR,,0.19,WeatherDisplay:10.37,2013-01-07 17:07:00,
2013-01-07 12:12:00,73.8,71.6,30.12,West,270,4.6,4.6,93,0.00,CLR,,0.19,WeatherDisplay:10.37,2013-01-07 17:12:00,
2013-01-07 12:17:00,73.8,72.0,30.11,West,270,5.8,5.8,94,0.01,RA,,0.20,WeatherDisplay:10.37,2013-01-07 17:17:00,
2013-01-07 12:22:00,73.0,71.2,30.11,WNW,292,5.8,5.8,94,0.01,RA,,0.20,WeatherDisplay:10.37,2013-01-07 17:22:00,
2013-01-07 12:27:00,73.4,70.9,30.11,WNW,292,5.8,5.8,92,0.01,,,0.20,WeatherDisplay:10.37,2013-01-07 17:27:00,
2013-01-07 12:32:00,73.6,71.4,30.11,WNW,292,4.2,4.2,93,0.01,CLR,,0.20,WeatherDisplay:10.37,2013-01-07 17:32:00,
2013-01-07 12:37:00,73.2,71.1,30.11,West,270,4.7,4.7,93,0.01,CLR,,0.20,WeatherDisplay:10.37,2013-01-07 17:37:00,
2013-01-07 12:42:00,73.8,71.6,30.10,NNE,22,4.6,4.6,93,0.01,CLR,,0.20,WeatherDisplay:10.37,2013-01-07 17:42:00,
2013-01-07 12:47:00,73.4,70.9,30.10,West,270,4.6,4.6,92,0.01,CLR,,0.20,WeatherDisplay:10.37,2013-01-07 17:47:00,
2013-01-07 12:52:00,73.6,70.8,30.10,West,270,4.6,4.6,91,0.01,CLR,,0.20,WeatherDisplay:10.37,2013-01-07 17:52:00,
2013-01-07 12:57:00,74.5,71.0,30.10,North,360,6.9,6.9,89,0.01,CLR,,0.20,WeatherDisplay:10.37,2013-01-07 17:57:00,
2013-01-07 13:02:00,75.2,70.7,30.10,NW,315,4.7,4.7,86,0.01,CLR,,0.20,WeatherDisplay:10.37,2013-01-07 18:02:00,
2013-01-07 13:07:00,74.1,70.3,30.10,NNW,338,8.8,8.8,88,0.01,CLR,,0.20,WeatherDisplay:10.37,2013-01-07 18:07:00,
2013-01-07 13:12:00,73.4,70.0,30.10,NNW,338,5.8,5.8,89,0.01,CLR,,0.20,WeatherDisplay:10.37,2013-01-07 18:12:00,
2013-01-07 13:17:00,73.0,68.9,30.09,NNE,22,8.1,8.1,87,0.00,CLR,,0.20,WeatherDisplay:10.37,2013-01-07 18:17:00,
2013-01-07 13:22:00,72.9,69.5,30.09,NE,45,7.3,7.3,89,0.00,CLR,,0.20,WeatherDisplay:10.37,2013-01-07 18:22:00,
2013-01-07 13:27:00,72.9,69.1,30.09,WNW,292,5.8,5.8,88,0.00,CLR,,0.20,WeatherDisplay:10.37,2013-01-07 18:27:00,
2013-01-07 13:32:00,73.0,68.9,30.09,NNW,338,6.9,6.9,87,0.00,CLR,,0.20,WeatherDisplay:10.37,2013-01-07 18:32:00,
2013-01-07 13:37:00,73.6,69.5,30.09,WNW,292,5.8,5.8,87,0.00,CLR,,0.20,WeatherDisplay:10.37,2013-01-07 18:37:00,
2013-01-07 13:42:00,73.8,69.3,30.09,NE,45,3.7,3.7,86,0.00,CLR,,0.20,WeatherDisplay:10.37,2013-01-07 18:42:00,
2013-01-07 13:47:00,73.4,69.3,30.09,WNW,292,4.6,4.6,87,0.00,CLR,,0.20,WeatherDisplay:10.37,2013-01-07 18:47:00,
2013-01-07 13:52:00,73.8,69.0,30.09,NNW,338,6.9,6.9,85,0.00,CLR,,0.20,WeatherDisplay:10.37,2013-01-07 18:52:00,
2013-01-07 13:57:00,74.1,69.6,30.09,North,360,4.6,4.6,86,0.00,CLR,,0.20,WeatherDisplay:10.37,2013-01-07 18:57:00,
2013-01-07 14:02:00,73.6,68.8,30.09,NNE,22,8.1,8.1,85,0.00,CLR,,0.20,WeatherDisplay:10.37,2013-01-07 19:02:00,
2013-01-07 14:07:00,74.1,69.6,30.09,ENE,68,6.3,6.3,86,0.00,CLR,,0.20,WeatherDisplay:10.37,2013-01-07 19:07:00,
2013-01-07 14:12:00,73.9,69.4,30.09,NNW,338,10.4,10.4,86,0.00,CLR,,0.20,WeatherDisplay:10.37,2013-01-07 19:12:00,
2013-01-07 14:17:00,74.3,69.8,30.08,NNW,338,9.2,9.2,86,0.00,CLR,,0.20,WeatherDisplay:10.37,2013-01-07 19:17:00,
2013-01-07 14:22:00,73.9,69.4,30.08,NNE,22,8.1,8.1,86,0.00,CLR,,0.20,WeatherDisplay:10.37,2013-01-07 19:22:00,
2013-01-07 14:27:00,74.5,69.7,30.08,NW,315,9.2,9.2,85,0.00,CLR,,0.20,WeatherDisplay:10.37,2013-01-07 19:27:00,
2013-01-07 14:32:00,74.5,70.0,30.08,NNW,338,5.8,5.8,86,0.00,CLR,,0.20,WeatherDisplay:10.37,2013-01-07 19:32:00,
2013-01-07 14:37:00,75.4,69.5,30.08,NE,45,8.3,8.3,82,0.00,CLR,,0.20,WeatherDisplay:10.37,2013-01-07 19:37:00,
2013-01-07 14:42:00,74.7,68.8,30.08,ENE,68,8.1,8.1,82,0.00,CLR,,0.20,WeatherDisplay:10.37,2013-01-07 19:42:00,
2013-01-07 14:47:00,74.7,68.8,30.08,ENE,68,6.9,6.9,82,0.00,CLR,,0.20,WeatherDisplay:10.37,2013-01-07 19:47:00,
2013-01-07 14:52:00,75.2,68.6,30.07,NW,315,9.4,9.4,80,0.00,CLR,,0.20,WeatherDisplay:10.37,2013-01-07 19:52:00,
2013-01-07 14:57:00,75.4,68.8,30.07,NNW,338,9.2,9.2,80,0.00,CLR,,0.20,WeatherDisplay:10.37,2013-01-07 19:57:00,
2013-01-07 15:02:00,74.7,68.8,30.07,NNW,338,6.9,6.9,82,0.00,CLR,,0.20,WeatherDisplay:10.37,2013-01-07 20:02:00,
2013-01-07 15:07:00,75.7,68.7,30.07,ENE,68,5.8,5.8,79,0.00,CLR,,0.20,WeatherDisplay:10.37,2013-01-07 20:07:00,
2013-01-07 15:12:00,76.8,69.0,30.07,WNW,292,4.6,4.6,77,0.00,CLR,,0.20,WeatherDisplay:10.37,2013-01-07 20:12:00,
2013-01-07 15:17:00,77.2,68.7,30.07,NW,315,5.8,5.8,75,0.00,CLR,,0.20,WeatherDisplay:10.37,2013-01-07 20:17:00,
2013-01-07 15:19:00,77.2,68.7,30.07,NE,45,5.8,5.8,75,0.00,CLR,,0.20,WeatherDisplay:10.37,2013-01-07 20:19:00,
2013-01-07 15:24:00,76.6,68.8,30.07,NW,315,6.3,6.3,77,0.00,CLR,,0.20,WeatherDisplay:10.37,2013-01-07 20:24:00,
2013-01-07 15:29:00,76.6,68.8,30.08,North,360,4.7,4.7,77,0.00,CLR,,0.20,WeatherDisplay:10.37,2013-01-07 20:29:00,
2013-01-07 15:34:00,76.1,69.1,30.08,NNW,338,6.9,6.9,79,0.00,CLR,,0.20,WeatherDisplay:10.37,2013-01-07 20:34:00,
2013-01-07 15:39:00,75.9,68.9,30.07,NNW,338,6.9,6.9,79,0.00,CLR,,0.20,WeatherDisplay:10.37,2013-01-07 20:39:00,
2013-01-07 15:44:00,76.1,69.5,30.07,NNW,338,8.1,8.1,80,0.00,CLR,,0.20,WeatherDisplay:10.37,2013-01-07 20:44:00,
2013-01-07 15:49:00,75.6,69.4,30.07,NNW,338,6.9,6.9,81,0.00,CLR,,0.20,WeatherDisplay:10.37,2013-01-07 20:49:00,
2013-01-07 15:54:00,74.8,68.6,30.08,NNW,338,5.8,5.8,81,0.00,CLR,,0.20,WeatherDisplay:10.37,2013-01-07 20:54:00,
2013-01-07 15:59:00,75.0,68.8,30.08,North,360,7.3,7.3,81,0.00,CLR,,0.20,WeatherDisplay:10.37,2013-01-07 20:59:00,
2013-01-07 16:04:00,75.0,68.8,30.08,NE,45,6.9,6.9,81,0.00,CLR,,0.20,WeatherDisplay:10.37,2013-01-07 21:04:00,
2013-01-07 16:09:00,74.7,68.8,30.08,NNE,22,10.4,10.4,82,0.00,CLR,,0.20,WeatherDisplay:10.37,2013-01-07 21:09:00,
2013-01-07 16:14:00,74.5,69.0,30.09,NNE,22,5.8,5.8,83,0.00,CLR,,0.20,WeatherDisplay:10.37,2013-01-07 21:14:00,
2013-01-07 16:19:00,74.3,68.8,30.09,NNW,338,8.1,8.1,83,0.00,CLR,,0.20,WeatherDisplay:10.37,2013-01-07 21:19:00,
2013-01-07 16:24:00,74.5,69.0,30.09,NNW,338,6.9,6.9,83,0.00,CLR,,0.20,WeatherDisplay:10.37,2013-01-07 21:24:00,
2013-01-07 16:29:00,74.5,69.3,30.08,NNW,338,5.8,5.8,84,0.00,CLR,,0.20,WeatherDisplay:10.37,2013-01-07 21:29:00,
2013-01-07 16:34:00,74.5,69.3,30.08,NE,45,5.8,5.8,84,0.00,CLR,,0.20,WeatherDisplay:10.37,2013-01-07 21:34:00,
2013-01-07 16:39:00,74.5,69.7,30.08,NNE,22,6.9,6.9,85,0.00,CLR,,0.20,WeatherDisplay:10.37,2013-01-07 21:39:00,
2013-01-07 16:44:00,74.7,69.9,30.08,NNE,22,4.6,4.6,85,0.00,CLR,,0.20,WeatherDisplay:10.37,2013-01-07 21:44:00,
2013-01-07 16:49:00,74.7,69.9,30.08,NNW,338,5.8,5.8,85,0.00,CLR,,0.20,WeatherDisplay:10.37,2013-01-07 21:49:00,
2013-01-07 16:54:00,74.3,69.8,30.08,NNW,338,6.9,6.9,86,0.00,CLR,,0.20,WeatherDisplay:10.37,2013-01-07 21:54:00,
2013-01-07 16:59:00,74.1,70.0,30.08,NNW,338,5.8,5.8,87,0.00,CLR,,0.20,WeatherDisplay:10.37,2013-01-07 21:59:00,
2013-01-07 17:04:00,74.1,70.0,30.08,NNW,338,8.1,8.1,87,0.00,CLR,,0.20,WeatherDisplay:10.37,2013-01-07 22:04:00,
2013-01-07 17:09:00,73.9,69.8,30.08,NNW,338,6.9,6.9,87,0.00,CLR,,0.20,WeatherDisplay:10.37,2013-01-07 22:09:00,
2013-01-07 17:14:00,73.8,69.3,30.09,NNW,338,9.4,9.4,86,0.00,CLR,,0.20,WeatherDisplay:10.37,2013-01-07 22:14:00,
2013-01-07 17:19:00,73.4,69.0,30.09,North,360,9.2,9.2,86,0.00,CLR,,0.20,WeatherDisplay:10.37,2013-01-07 22:19:00,
2013-01-07 17:24:00,73.4,69.3,30.09,West,270,9.2,9.2,87,0.00,CLR,,0.20,WeatherDisplay:10.37,2013-01-07 22:24:00,
2013-01-07 17:29:00,73.0,69.6,30.09,North,360,9.2,9.2,89,0.00,CLR,,0.20,WeatherDisplay:10.37,2013-01-07 22:29:00,
2013-01-07 17:34:00,73.0,69.6,30.09,NE,45,5.8,5.8,89,0.00,CLR,,0.20,WeatherDisplay:10.37,2013-01-07 22:34:00,
2013-01-07 17:39:00,73.0,69.6,30.09,NNW,338,5.8,5.8,89,0.00,CLR,,0.20,WeatherDisplay:10.37,2013-01-07 22:39:00,
2013-01-07 17:44:00,73.0,69.9,30.09,NNW,338,5.3,5.3,90,0.00,CLR,,0.20,WeatherDisplay:10.37,2013-01-07 22:44:00,
2013-01-07 17:49:00,72.9,69.8,30.09,North,360,6.9,6.9,90,0.00,CLR,,0.20,WeatherDisplay:10.37,2013-01-07 22:49:00,
2013-01-07 17:54:00,72.9,69.8,30.10,NNE,22,5.8,5.8,90,0.00,CLR,,0.20,WeatherDisplay:10.37,2013-01-07 22:54:00,
2013-01-07 17:59:00,72.9,69.8,30.10,NNW,338,5.8,5.8,90,0.00,CLR,,0.20,WeatherDisplay:10.37,2013-01-07 22:59:00,
2013-01-07 18:04:00,72.9,69.8,30.10,NNW,338,3.7,3.7,90,0.00,CLR,,0.20,WeatherDisplay:10.37,2013-01-07 23:04:00,
2013-01-07 18:09:00,72.7,69.6,30.10,North,360,4.7,4.7,90,0.00,CLR,,0.20,WeatherDisplay:10.37,2013-01-07 23:09:00,
2013-01-07 18:14:00,72.7,69.6,30.10,NNW,338,4.7,4.7,90,0.00,CLR,,0.20,WeatherDisplay:10.37,2013-01-07 23:14:00,
2013-01-07 18:19:00,72.7,69.6,30.10,NNW,338,4.6,4.6,90,0.00,CLR,,0.20,WeatherDisplay:10.37,2013-01-07 23:19:00,
2013-01-07 18:24:00,72.5,69.4,30.10,North,360,4.6,4.6,90,0.00,CLR,,0.20,WeatherDisplay:10.37,2013-01-07 23:24:00,
2013-01-07 18:30:00,72.5,69.4,30.10,NNW,338,4.6,4.6,90,0.00,CLR,,0.20,WeatherDisplay:10.37,2013-01-07 23:30:00,
2013-01-07 18:35:00,72.5,69.4,30.10,North,360,4.6,4.6,90,0.00,CLR,,0.20,WeatherDisplay:10.37,2013-01-07 23:35:00,
2013-01-07 18:40:00,72.5,69.4,30.11,NNW,338,4.7,4.7,90,0.00,CLR,,0.20,WeatherDisplay:10.37,2013-01-07 23:40:00,
2013-01-07 18:45:00,72.5,69.4,30.11,NNW,338,3.7,3.7,90,0.00,CLR,,0.20,WeatherDisplay:10.37,2013-01-07 23:45:00,
2013-01-07 18:50:00,72.3,69.2,30.11,North,360,3.7,3.7,90,0.00,CLR,,0.20,WeatherDisplay:10.37,2013-01-07 23:50:00,
2013-01-07 18:55:00,72.3,69.5,30.11,NNW,338,2.3,2.4,91,0.00,CLR,,0.20,WeatherDisplay:10.37,2013-01-07 23:55:00,
2013-01-07 19:00:00,72.3,69.5,30.11,NNW,338,0.0,0.0,91,0.00,CLR,,0.20,WeatherDisplay:10.37,2013-01-08 00:00:00,
2013-01-07 19:05:00,72.1,69.3,30.11,NE,45,0.0,0.0,91,0.00,CLR,,0.20,WeatherDisplay:10.37,2013-01-08 00:05:00,
2013-01-07 19:10:00,72.1,69.6,30.11,NE,45,0.0,0.0,92,0.00,CLR,,0.20,WeatherDisplay:10.37,2013-01-08 00:10:00,
2013-01-07 19:15:00,72.0,69.5,30.11,NNW,338,2.3,2.3,92,0.00,CLR,,0.20,WeatherDisplay:10.37,2013-01-08 00:15:00,
2013-01-07 19:20:00,72.0,69.5,30.11,NW,315,0.0,0.0,92,0.00,CLR,,0.20,WeatherDisplay:10.37,2013-01-08 00:20:00,
2013-01-07 19:25:00,72.0,69.5,30.11,NW,315,0.0,0.0,92,0.00,CLR,,0.20,WeatherDisplay:10.37,2013-01-08 00:25:00,
2013-01-07 19:30:00,72.0,69.9,30.12,NW,315,0.0,0.0,93,0.00,CLR,,0.20,WeatherDisplay:10.37,2013-01-08 00:30:00,
2013-01-07 19:35:00,72.0,69.9,30.12,NW,315,0.0,0.0,93,0.00,CLR,,0.20,WeatherDisplay:10.37,2013-01-08 00:35:00,
2013-01-07 19:40:00,72.0,69.9,30.12,NW,315,0.0,0.0,93,0.00,CLR,,0.20,WeatherDisplay:10.37,2013-01-08 00:40:00,
2013-01-07 19:45:00,72.0,69.9,30.12,NW,315,0.0,0.0,93,0.00,CLR,,0.20,WeatherDisplay:10.37,2013-01-08 00:45:00,
2013-01-07 19:50:00,72.0,69.9,30.12,NW,315,0.0,0.0,93,0.00,CLR,,0.20,WeatherDisplay:10.37,2013-01-08 00:50:00,
2013-01-07 19:55:00,72.0,69.9,30.12,NW,315,0.0,0.0,93,0.00,CLR,,0.20,WeatherDisplay:10.37,2013-01-08 00:55:00,
2013-01-07 20:00:00,72.0,69.9,30.12,NW,315,0.0,0.0,93,0.00,CLR,,0.20,WeatherDisplay:10.37,2013-01-08 01:00:00,
2013-01-07 20:05:00,72.0,69.9,30.12,NNW,338,0.0,0.0,93,0.00,CLR,,0.20,WeatherDisplay:10.37,2013-01-08 01:05:00,
2013-01-07 20:10:00,71.8,69.7,30.12,NW,315,4.6,4.6,93,0.00,CLR,,0.20,WeatherDisplay:10.37,2013-01-08 01:10:00,
2013-01-07 20:15:00,71.8,70.0,30.12,NW,315,3.5,3.5,94,0.00,CLR,,0.20,WeatherDisplay:10.37,2013-01-08 01:15:00,
2013-01-07 20:20:00,71.6,69.8,30.12,WNW,292,0.0,0.0,94,0.00,CLR,,0.20,WeatherDisplay:10.37,2013-01-08 01:20:00,
2013-01-07 20:25:00,71.4,69.6,30.12,NW,315,0.0,0.0,94,0.00,CLR,,0.20,WeatherDisplay:10.37,2013-01-08 01:25:00,
2013-01-07 20:30:00,71.2,69.7,30.13,WNW,292,0.0,0.0,95,0.00,CLR,,0.20,WeatherDisplay:10.37,2013-01-08 01:30:00,
2013-01-07 20:35:00,71.1,69.6,30.13,NW,315,3.5,3.5,95,0.00,CLR,,0.20,WeatherDisplay:10.37,2013-01-08 01:35:00,
2013-01-07 20:40:00,70.9,69.4,30.13,WNW,292,3.5,3.5,95,0.00,CLR,,0.20,WeatherDisplay:10.37,2013-01-08 01:40:00,
2013-01-07 20:45:00,70.7,69.5,30.13,NW,315,2.3,2.3,96,0.00,CLR,,0.20,WeatherDisplay:10.37,2013-01-08 01:45:00,
2013-01-07 20:50:00,70.5,69.3,30.13,NNE,22,2.3,2.3,96,0.00,CLR,,0.20,WeatherDisplay:10.37,2013-01-08 01:50:00,
2013-01-07 20:55:00,70.3,69.1,30.13,NNW,338,2.3,2.3,96,0.00,CLR,,0.20,WeatherDisplay:10.37,2013-01-08 01:55:00,
2013-01-07 21:00:00,70.2,69.3,30.13,North,360,2.3,2.3,97,0.00,CLR,,0.20,WeatherDisplay:10.37,2013-01-08 02:00:00,
2013-01-07 21:05:00,70.2,69.3,30.13,North,360,2.3,2.3,97,0.00,CLR,,0.20,WeatherDisplay:10.37,2013-01-08 02:05:00,
2013-01-07 21:10:00,70.0,69.1,30.13,NNW,338,0.0,0.0,97,0.00,CLR,,0.20,WeatherDisplay:10.37,2013-01-08 02:10:00,
2013-01-07 21:15:00,69.8,69.2,30.13,NNW,338,0.0,0.0,98,0.00,CLR,,0.20,WeatherDisplay:10.37,2013-01-08 02:15:00,
2013-01-07 21:20:00,69.6,69.0,30.13,NNW,338,0.0,0.0,98,0.00,CLR,,0.20,WeatherDisplay:10.37,2013-01-08 02:20:00,
2013-01-07 21:25:00,69.4,68.8,30.13,NNW,338,0.0,0.0,98,0.00,CLR,,0.20,WeatherDisplay:10.37,2013-01-08 02:25:00,
2013-01-07 21:30:00,69.3,69.0,30.12,NNW,338,0.0,0.0,99,0.00,CLR,,0.20,WeatherDisplay:10.37,2013-01-08 02:30:00,
2013-01-07 21:35:00,69.3,69.0,30.12,NNW,338,0.0,0.0,99,0.00,CLR,,0.20,WeatherDisplay:10.37,2013-01-08 02:35:00,
2013-01-07 21:40:00,69.1,68.8,30.12,NNW,338,0.0,0.0,99,0.00,CLR,,0.20,WeatherDisplay:10.37,2013-01-08 02:40:00,
2013-01-07 21:45:00,68.9,68.6,30.12,NNW,338,0.0,0.0,99,0.00,CLR,,0.20,WeatherDisplay:10.37,2013-01-08 02:45:00,
2013-01-07 21:50:00,68.9,68.6,30.13,NW,315,0.0,0.0,99,0.00,CLR,,0.20,WeatherDisplay:10.37,2013-01-08 02:50:00,
2013-01-07 21:55:00,68.9,68.6,30.13,NNW,338,0.0,0.0,99,0.00,CLR,,0.20,WeatherDisplay:10.37,2013-01-08 02:55:00,
2013-01-07 22:00:00,68.9,68.6,30.13,NE,45,0.0,0.0,99,0.00,CLR,,0.20,WeatherDisplay:10.37,2013-01-08 03:00:00,
2013-01-07 22:05:00,69.1,68.8,30.13,East,90,0.0,0.0,99,0.00,CLR,,0.20,WeatherDisplay:10.37,2013-01-08 03:05:00,
2013-01-07 22:10:00,69.1,68.8,30.13,East,90,0.0,0.0,99,0.00,CLR,,0.20,WeatherDisplay:10.37,2013-01-08 03:10:00,
2013-01-07 22:15:00,69.6,69.3,30.13,NE,45,3.5,3.5,99,0.00,CLR,,0.20,WeatherDisplay:10.37,2013-01-08 03:15:00,
2013-01-07 22:20:00,70.0,69.7,30.13,ENE,68,4.6,4.6,99,0.00,CLR,,0.20,WeatherDisplay:10.37,2013-01-08 03:20:00,
2013-01-07 22:25:00,72.0,70.2,30.13,SSE,158,8.1,8.1,94,0.00,CLR,,0.20,WeatherDisplay:10.37,2013-01-08 03:25:00,
2013-01-07 22:30:00,72.1,70.0,30.13,ESE,112,9.2,9.2,93,0.00,CLR,,0.20,WeatherDisplay:10.37,2013-01-08 03:30:00,
2013-01-07 22:35:00,72.1,68.7,30.13,SE,135,13.8,13.8,89,0.00,CLR,,0.20,WeatherDisplay:10.37,2013-01-08 03:35:00,
2013-01-07 22:40:00,72.0,68.6,30.13,ESE,112,8.1,8.1,89,0.00,CLR,,0.20,WeatherDisplay:10.37,2013-01-08 03:40:00,
2013-01-07 22:45:00,71.6,68.2,30.13,ENE,68,5.8,5.8,89,0.00,CLR,,0.20,WeatherDisplay:10.37,2013-01-08 03:45:00,
2013-01-07 22:50:00,71.4,68.6,30.12,NE,45,4.6,4.6,91,0.00,CLR,,0.20,WeatherDisplay:10.37,2013-01-08 03:50:00,
2013-01-07 22:55:00,71.2,68.8,30.12,East,90,3.5,3.5,92,0.00,CLR,,0.20,WeatherDisplay:10.37,2013-01-08 03:55:00,
2013-01-07 23:00:00,71.2,69.1,30.12,WNW,292,2.3,2.3,93,0.00,CLR,,0.20,WeatherDisplay:10.37,2013-01-08 04:00:00,
2013-01-07 23:05:00,71.4,69.6,30.12,SE,135,2.2,2.2,94,0.00,CLR,,0.20,WeatherDisplay:10.37,2013-01-08 04:05:00,
2013-01-07 23:10:00,71.2,69.4,30.12,SW,225,0.0,0.0,94,0.00,CLR,,0.20,WeatherDisplay:10.37,2013-01-08 04:10:00,
2013-01-07 23:15:00,71.2,69.7,30.12,ESE,112,2.7,2.7,95,0.00,CLR,,0.20,WeatherDisplay:10.37,2013-01-08 04:15:00,
2013-01-07 23:20:00,71.2,69.7,30.12,ESE,112,1.7,1.7,95,0.00,CLR,,0.20,WeatherDisplay:10.37,2013-01-08 04:20:00,
2013-01-07 23:25:00,71.1,69.6,30.12,SE,135,0.0,0.0,95,0.00,CLR,,0.20,WeatherDisplay:10.37,2013-01-08 04:25:00,
2013-01-07 23:30:00,71.2,70.0,30.12,ESE,112,2.3,2.3,96,0.00,CLR,,0.20,WeatherDisplay:10.37,2013-01-08 04:30:00,
2013-01-07 23:35:00,71.1,69.9,30.12,ESE,112,0.0,0.0,96,0.00,CLR,,0.20,WeatherDisplay:10.37,2013-01-08 04:35:00,
2013-01-07 23:40:00,71.2,70.0,30.12,NNW,338,3.5,3.5,96,0.00,CLR,,0.20,WeatherDisplay:10.37,2013-01-08 04:40:00,
2013-01-07 23:45:00,71.8,70.3,30.12,ENE,68,4.6,4.6,95,0.00,CLR,,0.20,WeatherDisplay:10.37,2013-01-08 04:45:00,
2013-01-07 23:50:00,72.3,70.2,30.11,ESE,112,4.7,4.7,93,0.00,CLR,,0.20,WeatherDisplay:10.37,2013-01-08 04:50:00,
2013-01-07 23:55:00,73.2,70.1,30.11,ESE,104,7.0,0.0,90,0.00,CLR,,0.20,WeatherDisplay:10.37,2013-01-08 04:55:00,